createdAt,value
2019-02-21T00:02:44.666Z,96438.92
2019-02-21T00:05:33.821Z,96436.37
2019-02-21T00:08:22.055Z,96433.77
2019-02-21T00:11:10.670Z,96436.37
2019-02-21T00:13:59.783Z,96430.78
2019-02-21T00:16:48.715Z,96432.08
2019-02-21T00:19:37.224Z,96437.20
2019-02-21T00:22:26.399Z,96435.47
2019-02-21T00:25:14.759Z,96444.13
2019-02-21T00:28:03.035Z,96439.80
2019-02-21T00:30:51.873Z,96448.00
2019-02-21T00:33:40.720Z,96442.38
2019-02-21T00:36:29.455Z,96446.70
2019-02-21T00:39:17.718Z,96448.41
2019-02-21T00:42:06.783Z,96448.87
2019-02-21T00:44:55.374Z,96451.02
2019-02-21T00:47:43.980Z,96449.72
2019-02-21T00:50:32.904Z,96447.58
2019-02-21T00:53:21.952Z,96456.20
2019-02-21T00:56:10.279Z,96454.92
2019-02-21T00:58:59.543Z,96453.64
2019-02-21T01:01:48.056Z,96459.67
2019-02-21T01:04:37.061Z,96454.51
2019-02-21T01:07:25.990Z,96464.42
2019-02-21T01:10:14.324Z,96464.41
2019-02-21T01:13:03.025Z,96458.35
2019-02-21T01:15:51.578Z,96456.15
2019-02-21T01:18:40.388Z,96465.21
2019-02-21T01:21:29.055Z,96468.22
2019-02-21T01:24:17.954Z,96465.62
2019-02-21T01:27:06.807Z,96466.05
2019-02-21T01:29:55.670Z,96469.92
2019-02-21T01:32:44.322Z,96471.23
2019-02-21T01:35:33.472Z,96466.02
2019-02-21T01:38:22.011Z,96468.59
2019-02-21T01:41:10.818Z,96475.05
2019-02-21T01:43:59.741Z,96476.31
2019-02-21T01:46:48.547Z,96478.48
2019-02-21T01:49:37.490Z,96472.38
2019-02-21T01:52:26.277Z,96471.07
2019-02-21T01:55:14.696Z,96470.57
2019-02-21T01:58:03.910Z,96464.55
2019-02-21T02:00:52.920Z,96474.03
2019-02-21T02:03:41.218Z,96475.78
2019-02-21T02:06:29.957Z,96469.77
2019-02-21T02:09:18.936Z,96474.13
2019-02-21T02:12:07.218Z,96473.23
2019-02-21T02:14:56.449Z,96468.94
2019-02-21T02:17:45.898Z,96471.09
2019-02-21T02:20:34.311Z,96472.36
2019-02-21T02:23:23.312Z,96471.03
2019-02-21T02:26:12.430Z,96466.29
2019-02-21T02:29:01.333Z,96469.77
2019-02-21T02:31:50.414Z,96468.45
2019-02-21T02:34:38.597Z,96471.02
2019-02-21T02:37:27.048Z,96480.04
2019-02-21T02:40:15.582Z,96486.86
2019-02-21T02:43:04.300Z,96489.78
2019-02-21T02:45:53.281Z,96491.94
2019-02-21T02:48:43.162Z,96487.56
2019-02-21T02:51:32.181Z,96492.23
2019-02-21T02:54:21.059Z,96490.94
2019-02-21T02:57:09.716Z,96489.97
2019-02-21T02:59:58.640Z,96486.54
2019-02-21T03:02:48.288Z,96485.73
2019-02-21T03:05:37.023Z,96487.05
2019-02-21T03:08:25.423Z,96484.52
2019-02-21T03:11:14.398Z,96483.30
2019-02-21T03:14:03.225Z,96486.34
2019-02-21T03:16:52.356Z,96487.66
2019-02-21T03:19:40.667Z,96491.98
2019-02-21T03:22:29.366Z,96492.02
2019-02-21T03:25:19.774Z,96493.30
2019-02-21T03:28:08.270Z,96491.15
2019-02-21T03:30:56.693Z,96489.03
2019-02-21T03:33:45.506Z,96487.71
2019-02-21T03:36:34.141Z,96489.44
2019-02-21T03:39:22.252Z,96488.59
2019-02-21T03:42:11.208Z,96488.17
2019-02-21T03:44:59.758Z,96487.30
2019-02-21T03:47:48.191Z,96492.03
2019-02-21T03:50:36.950Z,96495.45
2019-02-21T03:53:25.934Z,96500.13
2019-02-21T03:56:14.086Z,96503.52
2019-02-21T03:59:02.918Z,96505.25
2019-02-21T04:01:51.510Z,96503.91
2019-02-21T04:04:40.608Z,96506.45
2019-02-21T04:07:28.781Z,96501.66
2019-02-21T04:10:17.434Z,96499.49
2019-02-21T04:13:06.268Z,96498.20
2019-02-21T04:15:54.722Z,96506.39
2019-02-21T04:18:43.786Z,96498.61
2019-02-21T04:21:32.908Z,96504.63
2019-02-21T04:24:21.680Z,96501.58
2019-02-21T04:27:10.880Z,96502.41
2019-02-21T04:29:59.197Z,96499.35
2019-02-21T04:32:47.609Z,96494.98
2019-02-21T04:35:36.791Z,96502.67
2019-02-21T04:38:25.592Z,96504.79
2019-02-21T04:41:14.437Z,96498.67
2019-02-21T04:44:04.444Z,96502.08
2019-02-21T04:46:53.270Z,96498.58
2019-02-21T04:49:42.216Z,96504.56
2019-02-21T04:52:30.438Z,96505.41
2019-02-21T04:55:18.999Z,96511.36
2019-02-21T04:58:07.083Z,96512.18
2019-02-21T05:00:56.192Z,96512.96
2019-02-21T05:03:44.824Z,96516.80
2019-02-21T05:06:33.442Z,96516.84
2019-02-21T05:09:22.512Z,96513.84
2019-02-21T05:12:11.187Z,96515.55
2019-02-21T05:14:59.934Z,96516.80
2019-02-21T05:17:48.773Z,96511.16
2019-02-21T05:20:37.551Z,96517.95
2019-02-21T05:23:26.555Z,96518.35
2019-02-21T05:26:19.999Z,96521.19
2019-02-21T05:29:10.717Z,96519.89
2019-02-21T05:32:14.712Z,96512.11
2019-02-21T05:35:25.085Z,96514.70
2019-02-21T05:38:32.197Z,96517.67
2019-02-21T05:41:42.545Z,96519.38
2019-02-21T05:44:36.295Z,96517.64
2019-02-21T05:47:44.338Z,96522.36
2019-02-21T05:51:06.981Z,96525.38
2019-02-21T05:54:13.137Z,96525.78
2019-02-21T05:57:19.185Z,96524.01
2019-02-21T06:00:26.004Z,96528.23
2019-02-21T06:03:52.135Z,96532.84
2019-02-21T06:06:58.983Z,96539.24
2019-02-21T06:10:03.540Z,96542.27
2019-02-21T06:13:07.325Z,96540.57
2019-02-21T06:16:04.567Z,96539.37
2019-02-21T06:19:18.966Z,96542.03
2019-02-21T06:22:17.381Z,96540.78
2019-02-21T06:25:30.904Z,96544.66
2019-02-21T06:28:42.339Z,96547.67
2019-02-21T06:31:30.880Z,96547.19
2019-02-21T06:34:19.641Z,96555.33
2019-02-21T06:37:08.151Z,96560.45
2019-02-21T06:39:56.325Z,96565.20
2019-02-21T06:42:45.317Z,96557.91
2019-02-21T06:45:34.541Z,96561.34
2019-02-21T06:48:23.152Z,96564.41
2019-02-21T06:51:11.580Z,96570.90
2019-02-21T06:54:00.311Z,96567.07
2019-02-21T06:56:48.914Z,96581.34
2019-02-21T06:59:42.486Z,96584.02
2019-02-21T07:02:28.260Z,96582.33
2019-02-21T07:05:17.016Z,96582.81
2019-02-21T07:08:05.551Z,96588.09
2019-02-21T07:11:05.433Z,96596.00
2019-02-21T07:13:44.599Z,96594.78
2019-02-21T07:16:32.789Z,96599.66
2019-02-21T07:19:20.963Z,96602.77
2019-02-21T07:22:09.523Z,96604.20
2019-02-21T07:25:03.348Z,96609.81
2019-02-21T07:27:51.719Z,96605.53
2019-02-21T07:30:42.947Z,96612.50
2019-02-21T07:33:30.679Z,96610.87
2019-02-21T07:36:19.536Z,96608.80
2019-02-21T07:39:18.323Z,96601.04
2019-02-21T07:41:58.980Z,96609.70
2019-02-21T07:44:48.207Z,96607.66
2019-02-21T07:47:36.497Z,96608.19
2019-02-21T07:50:25.372Z,96610.48
2019-02-21T07:53:14.232Z,96614.87
2019-02-21T07:56:03.056Z,96613.66
2019-02-21T07:58:51.677Z,96611.13
2019-02-21T08:01:40.593Z,96612.55
2019-02-21T08:04:29.165Z,96607.48
2019-02-21T08:07:17.236Z,96606.69
2019-02-21T08:10:06.542Z,96605.90
2019-02-21T08:12:54.788Z,96602.09
2019-02-21T08:15:43.275Z,96603.47
2019-02-21T08:18:32.160Z,96612.19
2019-02-21T08:21:20.616Z,96608.36
2019-02-21T08:24:09.654Z,96616.20
2019-02-21T08:26:58.519Z,96611.92
2019-02-21T08:29:47.533Z,96616.30
2019-02-21T08:32:54.770Z,96607.68
2019-02-21T08:35:43.559Z,96605.12
2019-02-21T08:38:32.414Z,96612.08
2019-02-21T08:41:21.616Z,96609.51
2019-02-21T08:44:10.780Z,96604.80
2019-02-21T08:46:59.367Z,96596.16
2019-02-21T08:49:47.990Z,96604.39
2019-02-21T08:52:36.457Z,96612.20
2019-02-21T08:55:26.162Z,96611.34
2019-02-21T08:58:15.280Z,96608.77
2019-02-21T09:01:04.224Z,96610.09
2019-02-21T09:03:52.707Z,96609.20
2019-02-21T09:06:41.844Z,96609.20
2019-02-21T09:09:30.043Z,96613.97
2019-02-21T09:12:19.052Z,96614.84
2019-02-21T09:15:09.909Z,96620.03
2019-02-21T09:17:58.426Z,96623.48
2019-02-21T09:20:47.846Z,96627.37
2019-02-21T09:23:36.719Z,96628.62
2019-02-21T09:26:25.352Z,96629.92
2019-02-21T09:29:13.896Z,96630.32
2019-02-21T09:32:02.821Z,96632.45
2019-02-21T09:34:51.404Z,96629.36
2019-02-21T09:37:40.014Z,96634.55
2019-02-21T09:40:28.818Z,96638.39
2019-02-21T09:43:18.247Z,96647.02
2019-02-21T09:46:07.398Z,96644.38
2019-02-21T09:48:55.676Z,96640.02
2019-02-21T09:51:44.528Z,96641.72
2019-02-21T09:54:33.376Z,96642.98
2019-02-21T09:57:22.412Z,96634.23
2019-02-21T10:00:14.376Z,96638.96
2019-02-21T10:03:03.091Z,96632.85
2019-02-21T10:05:51.296Z,96633.23
2019-02-21T10:08:39.856Z,96634.06
2019-02-21T10:11:28.563Z,96630.91
2019-02-21T10:14:17.519Z,96636.03
2019-02-21T10:17:06.443Z,96632.14
2019-02-21T10:19:57.437Z,96632.04
2019-02-21T10:22:46.202Z,96631.38
2019-02-21T10:25:35.126Z,96632.11
2019-02-21T10:28:25.480Z,96623.66
2019-02-21T10:31:14.071Z,96624.47
2019-02-21T10:34:02.629Z,96621.41
2019-02-21T10:36:51.239Z,96622.14
2019-02-21T10:39:40.009Z,96628.59
2019-02-21T10:42:28.481Z,96623.80
2019-02-21T10:45:18.343Z,96622.45
2019-02-21T10:48:06.756Z,96620.80
2019-02-21T10:50:55.848Z,96607.78
2019-02-21T10:53:44.340Z,96613.31
2019-02-21T10:56:33.285Z,96610.78
2019-02-21T10:59:22.408Z,96611.12
2019-02-21T11:02:11.407Z,96599.33
2019-02-21T11:05:00.583Z,96593.23
2019-02-21T11:07:49.247Z,96584.05
2019-02-21T11:10:37.600Z,96582.87
2019-02-21T11:13:26.112Z,96584.51
2019-02-21T11:16:14.805Z,96585.47
2019-02-21T11:19:03.636Z,96586.40
2019-02-21T11:21:52.304Z,96580.33
2019-02-21T11:24:41.450Z,96575.45
2019-02-21T11:27:30.114Z,96579.06
2019-02-21T11:30:19.224Z,96577.84
2019-02-21T11:33:07.201Z,96585.09
2019-02-21T11:35:55.683Z,96583.94
2019-02-21T11:38:44.387Z,96582.06
2019-02-21T11:41:33.399Z,96587.20
2019-02-21T11:44:22.450Z,96584.09
2019-02-21T11:47:10.730Z,96580.17
2019-02-21T11:49:59.411Z,96581.39
2019-02-21T11:52:48.375Z,96580.30
2019-02-21T11:55:37.639Z,96571.25
2019-02-21T11:58:26.602Z,96568.67
2019-02-21T12:01:15.700Z,96567.86
2019-02-21T12:04:04.495Z,96557.12
2019-02-21T12:06:53.256Z,96549.77
2019-02-21T12:09:41.778Z,96552.86
2019-02-21T12:12:30.826Z,96549.26
2019-02-21T12:15:19.669Z,96553.14
2019-02-21T12:18:08.793Z,96552.83
2019-02-21T12:20:57.781Z,96548.74
2019-02-21T12:23:46.527Z,96554.45
2019-02-21T12:26:35.902Z,96539.70
2019-02-21T12:29:24.888Z,96543.56
2019-02-21T12:32:13.099Z,96542.20
2019-02-21T12:35:01.577Z,96544.02
2019-02-21T12:37:50.069Z,96541.19
2019-02-21T12:40:39.198Z,96539.16
2019-02-21T12:43:28.030Z,96539.99
2019-02-21T12:46:16.869Z,96541.84
2019-02-21T12:49:05.908Z,96542.66
2019-02-21T12:51:54.336Z,96546.66
2019-02-21T12:54:43.123Z,96543.19
2019-02-21T12:57:31.287Z,96544.70
2019-02-21T13:00:19.790Z,96537.63
2019-02-21T13:03:08.787Z,96538.25
2019-02-21T13:05:57.872Z,96535.89
2019-02-21T13:08:46.940Z,96533.36
2019-02-21T13:11:35.690Z,96530.63
2019-02-21T13:14:24.468Z,96533.53
2019-02-21T13:17:13.732Z,96522.46
2019-02-21T13:20:02.706Z,96527.08
2019-02-21T13:22:51.519Z,96525.20
2019-02-21T13:25:41.117Z,96532.58
2019-02-21T13:28:29.290Z,96528.31
2019-02-21T13:31:18.254Z,96526.30
2019-02-21T13:34:07.252Z,96528.23
2019-02-21T13:36:56.015Z,96521.53
2019-02-21T13:39:44.728Z,96516.33
2019-02-21T13:42:33.501Z,96512.38
2019-02-21T13:45:22.200Z,96509.43
2019-02-21T13:48:11.125Z,96515.41
2019-02-21T13:51:00.445Z,96507.52
2019-02-21T13:53:52.135Z,96510.30
2019-02-21T13:56:39.785Z,96509.13
2019-02-21T13:59:28.129Z,96505.00
2019-02-21T14:02:17.242Z,96497.81
2019-02-21T14:05:06.357Z,96495.41
2019-02-21T14:07:54.614Z,96499.12
2019-02-21T14:10:44.356Z,96494.41
2019-02-21T14:13:33.609Z,96494.77
2019-02-21T14:16:22.678Z,96495.67
2019-02-21T14:19:12.089Z,96483.54
2019-02-21T14:22:05.886Z,96487.81
2019-02-21T14:24:54.883Z,96488.86
2019-02-21T14:27:44.029Z,96488.45
2019-02-21T14:30:33.186Z,96483.50
2019-02-21T14:33:22.569Z,96485.91
2019-02-21T14:36:15.543Z,96474.73
2019-02-21T14:39:01.546Z,96471.63
2019-02-21T14:41:50.722Z,96471.70
2019-02-21T14:44:40.004Z,96470.44
2019-02-21T14:47:28.797Z,96464.30
2019-02-21T14:50:18.272Z,96456.49
2019-02-21T14:53:06.972Z,96449.59
2019-02-21T14:55:56.196Z,96450.08
2019-02-21T14:58:45.050Z,96446.41
2019-02-21T15:01:33.781Z,96451.53
2019-02-21T15:04:23.408Z,96450.09
2019-02-21T15:07:12.286Z,96442.63
2019-02-21T15:10:01.579Z,96444.58
2019-02-21T15:12:50.888Z,96443.61
2019-02-21T15:15:39.690Z,96439.24
2019-02-21T15:18:28.476Z,96451.05
2019-02-21T15:21:17.374Z,96455.72
2019-02-21T15:24:07.776Z,96454.06
2019-02-21T15:27:07.880Z,96452.91
2019-02-21T15:29:47.055Z,96457.09
2019-02-21T15:32:36.334Z,96456.95
2019-02-21T15:35:25.351Z,96453.27
2019-02-21T15:38:19.890Z,96451.55
2019-02-21T15:41:09.738Z,96454.78
2019-02-21T15:43:59.515Z,96445.75
2019-02-21T15:46:48.919Z,96449.26
2019-02-21T15:49:38.313Z,96451.94
2019-02-21T15:52:27.543Z,96453.25
2019-02-21T15:55:16.816Z,96462.91
2019-02-21T15:58:06.471Z,96463.30
2019-02-21T16:00:55.724Z,96459.50
2019-02-21T16:03:44.643Z,96466.57
2019-02-21T16:06:33.103Z,96466.58
2019-02-21T16:09:25.030Z,96468.31
2019-02-21T16:12:13.163Z,96467.94
2019-02-21T16:15:01.880Z,96470.09
2019-02-21T16:17:50.410Z,96474.89
2019-02-21T16:20:39.737Z,96475.38
2019-02-21T16:23:28.505Z,96481.13
2019-02-21T16:26:17.193Z,96492.55
2019-02-21T16:29:06.223Z,96488.26
2019-02-21T16:31:55.735Z,96486.58
2019-02-21T16:34:44.422Z,96479.73
2019-02-21T16:37:33.414Z,96476.77
2019-02-21T16:40:22.434Z,96487.28
2019-02-21T16:43:14.932Z,96490.41
2019-02-21T16:46:07.746Z,96485.70
2019-02-21T16:48:54.430Z,96491.03
2019-02-21T16:51:43.559Z,96489.78
2019-02-21T16:54:32.443Z,96495.47
2019-02-21T16:57:21.088Z,96496.88
2019-02-21T17:00:11.555Z,96496.88
2019-02-21T17:03:00.014Z,96497.40
2019-02-21T17:05:48.628Z,96504.87
2019-02-21T17:08:37.660Z,96505.80
2019-02-21T17:11:26.332Z,96524.17
2019-02-21T17:14:16.483Z,96525.91
2019-02-21T17:17:05.253Z,96522.83
2019-02-21T17:19:54.473Z,96527.63
2019-02-21T17:22:42.849Z,96533.78
2019-02-21T17:25:32.056Z,96529.96
2019-02-21T17:28:21.900Z,96534.72
2019-02-21T17:31:11.695Z,96533.41
2019-02-21T17:34:00.947Z,96537.80
2019-02-21T17:36:50.046Z,96538.72
2019-02-21T17:39:39.323Z,96536.20
2019-02-21T17:42:28.363Z,96537.59
2019-02-21T17:45:17.443Z,96537.59
2019-02-21T17:48:06.198Z,96538.02
2019-02-21T17:50:55.182Z,96532.45
2019-02-21T17:53:44.122Z,96542.44
2019-02-21T17:56:32.984Z,96553.84
2019-02-21T17:59:21.579Z,96552.62
2019-02-21T18:02:10.114Z,96555.73
2019-02-21T18:04:59.032Z,96562.29
2019-02-21T18:07:48.072Z,96552.27
2019-02-21T18:10:36.628Z,96557.48
2019-02-21T18:13:27.652Z,96554.08
2019-02-21T18:16:16.865Z,96554.11
2019-02-21T18:19:05.714Z,96555.48
2019-02-21T18:21:54.494Z,96560.36
2019-02-21T18:24:43.753Z,96564.37
2019-02-21T18:27:32.638Z,96569.69
2019-02-21T18:30:21.992Z,96571.48
2019-02-21T18:33:10.771Z,96572.85
2019-02-21T18:35:59.634Z,96573.83
2019-02-21T18:38:49.221Z,96572.06
2019-02-21T18:41:38.479Z,96573.86
2019-02-21T18:44:27.141Z,96579.95
2019-02-21T18:47:15.910Z,96583.95
2019-02-21T18:50:05.520Z,96584.83
2019-02-21T18:52:53.801Z,96584.88
2019-02-21T18:55:42.839Z,96586.63
2019-02-21T18:58:31.837Z,96591.90
2019-02-21T19:01:20.826Z,96588.02
2019-02-21T19:04:09.389Z,96588.47
2019-02-21T19:06:58.364Z,96587.19
2019-02-21T19:09:47.546Z,96595.03
2019-02-21T19:12:36.267Z,96598.54
2019-02-21T19:15:26.643Z,96601.14
2019-02-21T19:18:15.591Z,96603.32
2019-02-21T19:21:04.516Z,96604.22
2019-02-21T19:23:53.716Z,96610.25
2019-02-21T19:26:43.247Z,96607.25
2019-02-21T19:29:31.479Z,96612.91
2019-02-21T19:32:20.916Z,96614.25
2019-02-21T19:35:09.936Z,96616.00
2019-02-21T19:38:09.458Z,96615.14
2019-02-21T19:40:50.141Z,96617.34
2019-02-21T19:43:38.956Z,96611.28
2019-02-21T19:46:28.060Z,96620.88
2019-02-21T19:49:16.860Z,96620.84
2019-02-21T19:52:06.010Z,96624.75
2019-02-21T19:54:54.848Z,96626.51
2019-02-21T19:57:43.165Z,96629.94
2019-02-21T20:00:33.693Z,96631.70
2019-02-21T20:03:23.305Z,96632.53
2019-02-21T20:06:12.730Z,96637.71
2019-02-21T20:09:01.381Z,96641.22
2019-02-21T20:11:50.371Z,96643.41
2019-02-21T20:14:39.527Z,96644.27
2019-02-21T20:17:28.286Z,96641.21
2019-02-21T20:20:17.390Z,96643.40
2019-02-21T20:23:06.550Z,96641.67
2019-02-21T20:25:55.921Z,96655.13
2019-02-21T20:28:44.544Z,96647.78
2019-02-21T20:31:33.835Z,96643.44
2019-02-21T20:34:22.759Z,96646.05
2019-02-21T20:37:12.020Z,96647.39
2019-02-21T20:40:00.628Z,96645.23
2019-02-21T20:42:49.800Z,96641.77
2019-02-21T20:45:38.618Z,96647.00
2019-02-21T20:48:30.512Z,96645.27
2019-02-21T20:51:18.347Z,96650.05
2019-02-21T20:54:07.300Z,96646.14
2019-02-21T20:56:56.554Z,96650.53
2019-02-21T20:59:45.677Z,96646.66
2019-02-21T21:02:34.998Z,96646.27
2019-02-21T21:05:23.818Z,96653.67
2019-02-21T21:08:12.617Z,96656.28
2019-02-21T21:11:02.008Z,96658.47
2019-02-21T21:13:50.752Z,96661.94
2019-02-21T21:16:39.802Z,96667.61
2019-02-21T21:19:28.856Z,96665.88
2019-02-21T21:22:17.306Z,96663.73
2019-02-21T21:25:08.028Z,96662.84
2019-02-21T21:27:56.099Z,96662.44
2019-02-21T21:30:45.145Z,96665.91
2019-02-21T21:33:33.910Z,96665.03
2019-02-21T21:36:23.504Z,96664.17
2019-02-21T21:39:13.016Z,96670.23
2019-02-21T21:42:03.079Z,96675.00
2019-02-21T21:44:52.513Z,96678.04
2019-02-21T21:47:41.319Z,96674.59
2019-02-21T21:50:30.016Z,96678.91
2019-02-21T21:53:18.900Z,96678.06
2019-02-21T21:56:07.892Z,96678.94
2019-02-21T21:58:57.274Z,96681.53
2019-02-21T22:01:47.649Z,96675.90
2019-02-21T22:04:35.993Z,96675.45
2019-02-21T22:07:24.767Z,96668.08
2019-02-21T22:10:14.566Z,96667.66
2019-02-21T22:13:02.999Z,96668.96
2019-02-21T22:15:52.449Z,96671.12
2019-02-21T22:18:41.681Z,96666.80
2019-02-21T22:21:30.887Z,96664.19
2019-02-21T22:24:22.553Z,96664.20
2019-02-21T22:27:11.084Z,96665.48
2019-02-21T22:30:00.189Z,96665.05
2019-02-21T22:32:49.941Z,96658.98
2019-02-21T22:35:38.995Z,96661.58
2019-02-21T22:38:27.586Z,96669.83
2019-02-21T22:41:16.741Z,96671.98
2019-02-21T22:44:06.171Z,96669.39
2019-02-21T22:46:55.200Z,96666.36
2019-02-21T22:49:44.307Z,96671.99
2019-02-21T22:52:33.155Z,96670.24
2019-02-21T22:55:21.892Z,96670.67
2019-02-21T22:58:10.785Z,96672.84
2019-02-21T23:01:38.473Z,96669.38
2019-02-21T23:04:45.165Z,96667.65
2019-02-21T23:07:42.585Z,96675.02
2019-02-21T23:10:30.893Z,96669.82
2019-02-21T23:13:19.046Z,96674.59
2019-02-21T23:16:07.643Z,96677.19
2019-02-21T23:18:56.491Z,96683.23
2019-02-21T23:21:45.409Z,96684.10
2019-02-21T23:24:34.277Z,96681.52
2019-02-21T23:27:22.676Z,96680.20
2019-02-21T23:30:13.129Z,96677.19
2019-02-21T23:33:01.840Z,96678.05
2019-02-21T23:35:50.421Z,96679.37
2019-02-21T23:38:38.982Z,96683.27
2019-02-21T23:41:27.863Z,96688.90
2019-02-21T23:44:16.609Z,96686.30
2019-02-21T23:47:05.796Z,96696.25
2019-02-21T23:49:54.773Z,96696.70
2019-02-21T23:52:43.263Z,96702.33
2019-02-21T23:55:32.064Z,96697.98
2019-02-21T23:58:20.717Z,96689.75
